Time;durP1;ratioP1;P1;durP2;ratioP2;P2;SDS_P1;SDS_P2;PMS_P1;PMS_P2;Temp;Humidity;BMP_temperature;BMP_pressure;BME280_temperature;BME280_humidity;BME280_pressure;Samples;Min_cycle;Max_cycle;Signal;HPM_P1;HPM_P2
2022/03/19 00:00:23;;;;;;;10.38;4.32;;;;;;;;;;5094632;28;20036;-66
2022/03/19 00:02:49;;;;;;;11.73;3.38;;;;;;;;;;5093834;28;20071;-66
2022/03/19 00:05:16;;;;;;;10.63;2.92;;;;;;;;;;5094520;28;20040;-66
2022/03/19 00:07:42;;;;;;;9.88;2.80;;;;;;;;;;5094689;28;20040;-66
2022/03/19 00:10:09;;;;;;;13.20;2.38;;;;;;;;;;5092343;28;20075;-66
2022/03/19 00:12:41;;;;;;;13.00;2.30;;;;;;;;;;5094771;28;20089;-66
2022/03/19 00:15:08;;;;;;;9.98;3.15;;;;;;;;;;5093198;28;20119;-66
2022/03/19 00:17:34;;;;;;;15.60;3.75;;;;;;;;;;5093855;28;20039;-66
2022/03/19 00:20:00;;;;;;;12.02;2.47;;;;;;;;;;5094188;28;20097;-66
2022/03/19 00:22:26;;;;;;;11.02;2.67;;;;;;;;;;5094279;28;20036;-66
2022/03/19 00:24:52;;;;;;;13.48;2.75;;;;;;;;;;5092483;28;20119;-66
2022/03/19 00:27:18;;;;;;;12.30;2.65;;;;;;;;;;5093203;28;20047;-66
2022/03/19 00:29:44;;;;;;;9.80;1.85;;;;;;;;;;5093656;28;20113;-66
2022/03/19 00:32:10;;;;;;;10.52;2.50;;;;;;;;;;5093916;28;20039;-66
2022/03/19 00:34:36;;;;;;;9.77;2.38;;;;;;;;;;5094141;28;20472;-66
2022/03/19 00:37:03;;;;;;;8.13;2.03;;;;;;;;;;5092651;28;20081;-66
2022/03/19 00:39:29;;;;;;;10.23;2.70;;;;;;;;;;5094035;28;20051;-66
2022/03/19 00:41:55;;;;;;;12.32;2.60;;;;;;;;;;5093818;28;20036;-66
2022/03/19 00:44:21;;;;;;;8.48;2.75;;;;;;;;;;5093012;28;20036;-66
2022/03/19 00:46:48;;;;;;;9.13;2.38;;;;;;;;;;5092330;28;20051;-66
2022/03/19 00:49:14;;;;;;;9.77;2.78;;;;;;;;;;5093865;28;20040;-66
2022/03/19 00:51:40;;;;;;;14.80;2.60;;;;;;;;;;5091731;28;20051;-66
2022/03/19 00:54:11;;;;;;;11.60;2.60;;;;;;;;;;5093562;28;20186;-66
2022/03/19 00:56:37;;;;;;;9.23;2.45;;;;;;;;;;5094113;28;20051;-66
2022/03/19 00:59:03;;;;;;;10.82;2.53;;;;;;;;;;5091514;28;20043;-66
2022/03/19 01:01:30;;;;;;;8.65;2.40;;;;;;;;;;5093354;28;20113;-66
2022/03/19 01:03:56;;;;;;;9.23;2.47;;;;;;;;;;5093548;28;20046;-66
2022/03/19 01:06:22;;;;;;;11.00;2.40;;;;;;;;;;5092551;28;20036;-66
2022/03/19 01:08:48;;;;;;;11.07;2.35;;;;;;;;;;5093277;28;20044;-66
2022/03/19 01:11:14;;;;;;;9.80;2.45;;;;;;;;;;5091982;28;20496;-66
2022/03/19 01:13:40;;;;;;;18.77;2.90;;;;;;;;;;5092321;28;20044;-66
2022/03/19 01:16:07;;;;;;;8.93;2.22;;;;;;;;;;5092183;28;20044;-66
2022/03/19 01:18:34;;;;;;;13.95;3.33;;;;;;;;;;5092089;28;20044;-66
2022/03/19 01:21:00;;;;;;;11.52;3.47;;;;;;;;;;5074009;28;20046;-66
2022/03/19 01:23:26;;;;;;;13.70;3.17;;;;;;;;;;5091864;28;20032;-66
2022/03/19 01:25:52;;;;;;;10.65;2.80;;;;;;;;;;5093021;28;20048;-66
2022/03/19 01:28:18;;;;;;;9.35;2.42;;;;;;;;;;5092223;28;20162;-66
2022/03/19 01:30:44;;;;;;;8.18;2.10;;;;;;;;;;5091578;28;20048;-66
2022/03/19 01:33:10;;;;;;;12.85;2.20;;;;;;;;;;5074158;28;20039;-66
2022/03/19 01:35:36;;;;;;;16.05;2.85;;;;;;;;;;5093012;28;20477;-66
2022/03/19 01:38:04;;;;;;;9.82;3.03;;;;;;;;;;5091484;28;20486;-66
2022/03/19 01:40:30;;;;;;;16.02;2.75;;;;;;;;;;5091834;28;20048;-66
2022/03/19 01:42:57;;;;;;;8.35;2.38;;;;;;;;;;5092682;28;20036;-66
2022/03/19 01:45:23;;;;;;;17.17;4.60;;;;;;;;;;5092550;28;20040;-66
2022/03/19 01:47:50;;;;;;;13.38;2.95;;;;;;;;;;5090960;28;20119;-66
2022/03/19 01:50:17;;;;;;;11.13;2.45;;;;;;;;;;5092681;28;20047;-66
2022/03/19 01:52:44;;;;;;;10.05;3.17;;;;;;;;;;5092452;28;20142;-66
2022/03/19 01:55:11;;;;;;;19.10;3.85;;;;;;;;;;5091673;28;20044;-66
2022/03/19 01:57:40;;;;;;;19.48;4.07;;;;;;;;;;5092640;28;20040;-66
2022/03/19 02:00:07;;;;;;;13.95;4.05;;;;;;;;;;5074563;28;20073;-66
2022/03/19 02:02:33;;;;;;;15.00;3.25;;;;;;;;;;5091910;28;20040;-66
2022/03/19 02:05:01;;;;;;;13.18;2.80;;;;;;;;;;5092300;28;20492;-66
2022/03/19 02:07:27;;;;;;;13.02;2.53;;;;;;;;;;5092399;28;20566;-66
2022/03/19 02:09:57;;;;;;;12.15;3.78;;;;;;;;;;5091506;28;20396;-66
2022/03/19 02:12:23;;;;;;;13.30;3.83;;;;;;;;;;5090905;28;20067;-66
2022/03/19 02:14:49;;;;;;;11.63;3.00;;;;;;;;;;5091997;28;20099;-66
2022/03/19 02:17:15;;;;;;;15.63;3.38;;;;;;;;;;5090015;28;20077;-66
2022/03/19 02:19:48;;;;;;;16.20;3.60;;;;;;;;;;5090917;28;20036;-66
2022/03/19 02:22:14;;;;;;;9.15;2.55;;;;;;;;;;5092033;28;20385;-66
2022/03/19 02:27:25;;;;;;;17.73;3.60;;;;;;;;;;5092393;28;20135;-66
2022/03/19 02:29:52;;;;;;;13.00;3.75;;;;;;;;;;5091367;28;20071;-66
2022/03/19 02:32:18;;;;;;;10.02;2.63;;;;;;;;;;5090810;28;20052;-66
2022/03/19 02:34:44;;;;;;;9.05;2.85;;;;;;;;;;5090617;28;20101;-66
2022/03/19 02:37:10;;;;;;;11.98;3.00;;;;;;;;;;5091178;28;20032;-66
2022/03/19 02:39:36;;;;;;;10.52;3.42;;;;;;;;;;5091315;28;20500;-66
2022/03/19 02:42:03;;;;;;;13.48;3.60;;;;;;;;;;5090830;28;20079;-66
2022/03/19 02:44:29;;;;;;;9.13;3.08;;;;;;;;;;5090346;28;20094;-66
2022/03/19 02:46:57;;;;;;;13.23;3.20;;;;;;;;;;5091869;28;20047;-66
2022/03/19 02:49:24;;;;;;;14.85;4.05;;;;;;;;;;5090619;28;20044;-66
2022/03/19 02:51:51;;;;;;;12.93;3.05;;;;;;;;;;5091065;28;20040;-66
2022/03/19 02:54:18;;;;;;;11.70;3.00;;;;;;;;;;5090455;28;20052;-66
2022/03/19 02:56:45;;;;;;;12.65;4.07;;;;;;;;;;5091879;28;20121;-66
2022/03/19 02:59:20;;;;;;;16.65;4.13;;;;;;;;;;5092218;28;20048;-66
2022/03/19 03:01:46;;;;;;;12.65;3.90;;;;;;;;;;5094535;28;20085;-66
2022/03/19 03:04:13;;;;;;;9.80;4.15;;;;;;;;;;5094535;28;20507;-66
2022/03/19 03:06:40;;;;;;;11.65;3.05;;;;;;;;;;5093872;28;20036;-66
2022/03/19 03:09:06;;;;;;;13.30;4.68;;;;;;;;;;5096167;28;20040;-66
2022/03/19 03:11:32;;;;;;;8.40;3.92;;;;;;;;;;5093667;28;20123;-66
2022/03/19 03:13:59;;;;;;;8.02;3.28;;;;;;;;;;5094039;28;20496;-66
2022/03/19 03:16:28;;;;;;;16.20;3.47;;;;;;;;;;5095541;28;20388;-66
2022/03/19 03:18:58;;;;;;;8.73;3.63;;;;;;;;;;5094641;28;20047;-66
2022/03/19 03:21:27;;;;;;;14.93;3.75;;;;;;;;;;5095650;28;20036;-66
2022/03/19 03:23:53;;;;;;;14.00;5.03;;;;;;;;;;5095362;28;20042;-66
2022/03/19 03:26:19;;;;;;;14.65;3.92;;;;;;;;;;5094331;28;20046;-66
2022/03/19 03:28:45;;;;;;;14.68;3.00;;;;;;;;;;5094106;28;20040;-66
2022/03/19 03:31:11;;;;;;;8.77;3.60;;;;;;;;;;5093863;28;20561;-66
2022/03/19 03:33:38;;;;;;;13.35;3.28;;;;;;;;;;5093326;28;20047;-66
2022/03/19 03:36:04;;;;;;;12.73;4.05;;;;;;;;;;5093792;28;20040;-66
2022/03/19 03:38:30;;;;;;;10.95;3.53;;;;;;;;;;5095236;28;20036;-66
2022/03/19 03:40:56;;;;;;;9.90;3.80;;;;;;;;;;5094675;28;20185;-66
2022/03/19 03:43:22;;;;;;;9.65;3.00;;;;;;;;;;5094954;28;20069;-66
2022/03/19 03:45:48;;;;;;;12.30;4.47;;;;;;;;;;5094931;28;20109;-66
2022/03/19 03:48:15;;;;;;;12.50;4.03;;;;;;;;;;5094132;28;20101;-66
2022/03/19 03:50:41;;;;;;;17.60;4.30;;;;;;;;;;5094962;28;20115;-66
2022/03/19 03:53:07;;;;;;;15.20;5.07;;;;;;;;;;5076565;28;20125;-66
2022/03/19 03:55:34;;;;;;;22.33;5.57;;;;;;;;;;5094333;28;20084;-66
2022/03/19 03:58:03;;;;;;;9.38;3.55;;;;;;;;;;5093468;28;20097;-66
2022/03/19 04:00:29;;;;;;;13.73;3.92;;;;;;;;;;5093446;28;20036;-66
2022/03/19 04:02:55;;;;;;;19.02;5.18;;;;;;;;;;5094015;28;20093;-66
2022/03/19 04:05:21;;;;;;;14.70;5.05;;;;;;;;;;5094747;28;20047;-66
2022/03/19 04:07:47;;;;;;;11.98;4.15;;;;;;;;;;5094028;28;20051;-66
2022/03/19 04:10:13;;;;;;;17.92;4.28;;;;;;;;;;5075786;28;20096;-66
2022/03/19 04:12:39;;;;;;;14.05;4.25;;;;;;;;;;5094231;28;20401;-66
2022/03/19 04:15:06;;;;;;;16.40;3.63;;;;;;;;;;5092437;28;20039;-66
2022/03/19 04:17:32;;;;;;;16.13;3.92;;;;;;;;;;5093548;28;20392;-66
2022/03/19 04:19:58;;;;;;;16.15;3.92;;;;;;;;;;5076251;28;20508;-66
2022/03/19 04:22:25;;;;;;;16.38;4.53;;;;;;;;;;5092309;28;20063;-66
2022/03/19 04:24:51;;;;;;;17.58;4.35;;;;;;;;;;5094327;28;20051;-66
2022/03/19 04:27:17;;;;;;;15.27;5.28;;;;;;;;;;5094041;28;20032;-66
2022/03/19 04:29:43;;;;;;;13.55;5.60;;;;;;;;;;5093249;28;20397;-66
2022/03/19 04:32:09;;;;;;;19.58;6.88;;;;;;;;;;5094000;28;20040;-66
2022/03/19 04:34:35;;;;;;;19.83;7.75;;;;;;;;;;5094433;28;20119;-66
2022/03/19 04:37:01;;;;;;;15.57;6.35;;;;;;;;;;5093346;28;20043;-66
2022/03/19 04:39:27;;;;;;;19.85;6.10;;;;;;;;;;5093930;28;20043;-66
2022/03/19 04:41:53;;;;;;;14.68;5.80;;;;;;;;;;5092606;28;20047;-66
2022/03/19 04:44:19;;;;;;;16.58;5.40;;;;;;;;;;5092000;28;20404;-66
2022/03/19 04:46:45;;;;;;;16.05;5.32;;;;;;;;;;5093716;28;20392;-66
2022/03/19 04:49:11;;;;;;;15.35;5.57;;;;;;;;;;5093930;28;20039;-66
2022/03/19 04:51:38;;;;;;;13.20;5.18;;;;;;;;;;5091825;28;20044;-66
2022/03/19 04:54:05;;;;;;;15.00;4.43;;;;;;;;;;5075359;28;20083;-66
2022/03/19 04:56:31;;;;;;;10.90;4.50;;;;;;;;;;5093477;28;20051;-66
2022/03/19 04:58:59;;;;;;;16.58;5.40;;;;;;;;;;5092667;28;20036;-66
2022/03/19 05:01:28;;;;;;;15.88;5.50;;;;;;;;;;5093625;28;20470;-66
2022/03/19 05:03:55;;;;;;;19.42;5.50;;;;;;;;;;5093598;28;20032;-66
2022/03/19 05:06:21;;;;;;;14.95;4.88;;;;;;;;;;5091620;28;20569;-66
2022/03/19 05:11:12;;;;;;;14.90;6.25;;;;;;;;;;5092066;28;20069;-66
2022/03/19 05:11:33;;;;;;;12.07;4.95;;;;;;;;;;5091272;28;20052;-66
2022/03/19 05:13:59;;;;;;;12.80;5.22;;;;;;;;;;5093397;28;20040;-66
2022/03/19 05:16:25;;;;;;;13.55;5.50;;;;;;;;;;5093341;28;20050;-66
2022/03/19 05:18:51;;;;;;;15.55;5.95;;;;;;;;;;5092444;28;20050;-66
2022/03/19 05:21:17;;;;;;;10.48;5.10;;;;;;;;;;5093113;28;20036;-66
2022/03/19 05:23:47;;;;;;;16.48;5.28;;;;;;;;;;5091694;28;20464;-66
2022/03/19 05:26:13;;;;;;;15.75;5.75;;;;;;;;;;5091015;28;20119;-66
2022/03/19 05:28:39;;;;;;;15.60;5.65;;;;;;;;;;5093432;28;20377;-66
2022/03/19 05:31:08;;;;;;;15.40;5.53;;;;;;;;;;5093201;28;20477;-66
2022/03/19 05:36:18;;;;;;;15.45;6.00;;;;;;;;;;5092702;28;20036;-66
2022/03/19 05:38:44;;;;;;;15.90;5.22;;;;;;;;;;5092774;28;20059;-66
2022/03/19 05:41:10;;;;;;;21.45;5.50;;;;;;;;;;5091861;28;20089;-66
2022/03/19 05:43:37;;;;;;;15.20;5.70;;;;;;;;;;5091665;28;20036;-66
2022/03/19 05:46:03;;;;;;;12.65;5.32;;;;;;;;;;5092765;28;20122;-66
2022/03/19 05:48:29;;;;;;;17.17;5.25;;;;;;;;;;5091815;28;20098;-66
2022/03/19 05:50:55;;;;;;;13.63;6.15;;;;;;;;;;5091264;28;20040;-66
2022/03/19 05:53:21;;;;;;;12.18;5.80;;;;;;;;;;5090300;28;20136;-66
2022/03/19 05:55:47;;;;;;;18.02;6.03;;;;;;;;;;5092303;28;20070;-66
2022/03/19 05:58:13;;;;;;;16.08;5.65;;;;;;;;;;5091314;28;20040;-66
2022/03/19 06:00:39;;;;;;;13.27;5.93;;;;;;;;;;5090880;28;20394;-66
2022/03/19 06:03:05;;;;;;;20.23;6.60;;;;;;;;;;5091451;28;20052;-66
2022/03/19 06:05:31;;;;;;;18.98;6.47;;;;;;;;;;5092349;28;20051;-66
2022/03/19 06:07:59;;;;;;;14.32;5.55;;;;;;;;;;5090184;28;20587;-66
2022/03/19 06:10:25;;;;;;;17.88;7.75;;;;;;;;;;5091217;28;20047;-66
2022/03/19 06:12:51;;;;;;;18.05;9.07;;;;;;;;;;5092477;28;20044;-66
2022/03/19 06:15:17;;;;;;;14.68;7.70;;;;;;;;;;5091298;28;20040;-66
2022/03/19 06:17:43;;;;;;;17.80;10.45;;;;;;;;;;5092272;28;20047;-66
2022/03/19 06:20:09;;;;;;;20.05;9.90;;;;;;;;;;5074005;28;20040;-66
2022/03/19 06:22:39;;;;;;;17.92;7.65;;;4.20;99.90;;;;;;5091700;28;20043;-66
2022/03/19 06:25:05;;;;;;;18.23;6.75;;;4.50;99.90;;;;;;5091237;28;20123;-66
2022/03/19 06:27:31;;;;;;;18.88;8.38;;;4.30;99.90;;;;;;5092237;28;20111;-66
2022/03/19 06:29:56;;;;;;;19.23;7.68;;;4.30;99.90;;;;;;5090549;28;20056;-66
2022/03/19 06:32:22;;;;;;;22.52;8.25;;;;;;;;;;5092164;28;20075;-66
2022/03/19 06:34:48;;;;;;;17.45;9.18;;;;;;;;;;5092931;28;20052;-66
2022/03/19 06:37:21;;;;;;;13.00;7.72;;;;;;;;;;5095516;28;20043;-66
2022/03/19 06:39:53;;;;;;;14.95;6.75;;;;;;;;;;5096307;28;20036;-66
2022/03/19 06:42:19;;;;;;;22.80;7.00;;;;;;;;;;5095015;28;20105;-66
2022/03/19 06:44:45;;;;;;;19.00;7.40;;;;;;;;;;5094012;28;20047;-66
2022/03/19 06:47:11;;;;;;;13.43;6.70;;;;;;;;;;5096016;28;20122;-66
2022/03/19 06:49:37;;;;;;;18.80;8.98;;;;;;;;;;5098666;28;20042;-67
2022/03/19 06:52:04;;;;;;;22.02;8.85;;;;;;;;;;5102638;27;20047;-66
2022/03/19 06:54:34;;;;;;;16.17;11.48;;;;;;;;;;5096049;28;20071;-67
2022/03/19 06:57:01;;;;;;;18.65;8.10;;;;;;;;;;5093034;28;20043;-67
2022/03/19 06:59:27;;;;;;;14.32;6.72;;;;;;;;;;5112229;28;20115;-67
2022/03/19 07:01:53;;;;;;;17.42;7.45;;;;;;;;;;5112758;28;20512;-66
2022/03/19 07:04:20;;;;;;;20.05;8.95;;;;;;;;;;5111789;28;20393;-66
2022/03/19 07:06:46;;;;;;;27.20;11.23;;;;;;;;;;5101356;28;20034;-66
2022/03/19 07:09:12;;;;;;;20.42;9.88;;;;;;;;;;5093341;28;20464;-67
2022/03/19 07:11:39;;;;;;;20.90;10.00;;;;;;;;;;5092535;28;20079;-67
2022/03/19 07:14:05;;;;;;;21.92;9.63;;;;;;;;;;5093371;28;20044;-67
2022/03/19 07:16:31;;;;;;;17.63;8.52;;;5.40;99.90;;;;;;5093285;28;20036;-67
2022/03/19 07:18:56;;;;;;;15.05;8.23;;;5.20;99.90;;;;;;5092804;28;20039;-66
2022/03/19 07:21:22;;;;;;;14.55;8.00;;;;;;;;;;5101127;28;20028;-66
2022/03/19 07:23:49;;;;;;;21.10;7.68;;;;;;;;;;5110604;28;20122;-66
2022/03/19 07:26:15;;;;;;;15.80;8.65;;;;;;;;;;5111407;28;20043;-66
2022/03/19 07:28:41;;;;;;;16.73;7.13;;;;;;;;;;5113702;28;20033;-67
2022/03/19 07:31:07;;;;;;;12.57;6.82;;;;;;;;;;5109919;28;20051;-66
2022/03/19 07:33:34;;;;;;;13.82;7.25;;;;;;;;;;5098452;28;20123;-66
2022/03/19 07:36:04;;;;;;;13.18;7.22;;;;;;;;;;5108182;28;20663;-66
2022/03/19 07:38:33;;;;;;;14.55;5.95;;;;;;;;;;5096219;28;20039;-67
2022/03/19 07:43:45;;;;;;;18.67;6.18;;;;;;;;;;5108545;28;20035;-67
2022/03/19 07:46:12;;;;;;;18.55;6.72;;;;;;;;;;5111814;28;20044;-67
2022/03/19 07:48:38;;;;;;;14.77;5.68;;;;;;;;;;5104284;28;20039;-67
2022/03/19 07:51:04;;;;;;;14.70;6.72;;;;;;;;;;5100343;28;20052;-68
2022/03/19 07:53:30;;;;;;;13.95;6.63;;;;;;;;;;5105931;28;20051;-67
2022/03/19 07:55:56;;;;;;;12.88;7.05;;;;;;;;;;5111135;28;20427;-67
2022/03/19 07:58:23;;;;;;;12.52;6.13;;;;;;;;;;5091001;28;20047;-67
2022/03/19 08:00:49;;;;;;;12.25;6.00;;;;;;;;;;5090169;28;20063;-67
2022/03/19 08:03:15;;;;;;;14.48;6.63;;;;;;;;;;5090071;28;20473;-67
2022/03/19 08:05:41;;;;;;;14.70;6.05;;;;;;;;;;5105968;28;20050;-66
2022/03/19 08:08:07;;;;;;;13.88;6.22;;;;;;;;;;5111814;28;20046;-66
2022/03/19 08:10:34;;;;;;;11.70;5.55;;;;;;;;;;5112773;28;20039;-66
2022/03/19 08:13:03;;;;;;;17.90;5.95;;;;;;;;;;5110464;28;20043;-66
2022/03/19 08:15:30;;;;;;;13.15;5.63;;;;;;;;;;5111790;28;20555;-64
2022/03/19 08:17:56;;;;;;;17.13;5.15;;;;;;;;;;5104742;28;20040;-64
2022/03/19 08:20:22;;;;;;;14.40;6.70;;;;;;;;;;5101621;28;20043;-64
2022/03/19 08:22:48;;;;;;;12.73;5.30;;;;;;;;;;5090327;28;20040;-64
2022/03/19 08:25:14;;;;;;;10.43;4.70;;;;;;;;;;5094732;28;20035;-66
2022/03/19 08:27:40;;;;;;;14.35;5.05;;;;;;;;;;5093090;28;20093;-66
2022/03/19 08:30:07;;;;;;;15.38;5.05;;;;;;;;;;5090211;28;20040;-66
2022/03/19 08:32:34;;;;;;;13.57;5.45;;;;;;;;;;5101700;28;20047;-66
2022/03/19 08:35:00;;;;;;;14.23;5.43;;;;;;;;;;5109287;28;20047;-66
2022/03/19 08:37:26;;;;;;;13.40;5.07;;;;;;;;;;5111252;28;20035;-66
2022/03/19 08:42:38;;;;;;;14.75;5.40;;;;;;;;;;5097363;28;20043;-66
2022/03/19 08:45:04;;;;;;;13.00;5.22;;;7.90;99.90;;;;;;5107797;28;20129;-66
2022/03/19 08:47:30;;;;;;;14.10;4.85;;;7.50;99.90;;;;;;5097820;28;20043;-66
2022/03/19 08:49:56;;;;;;;17.02;6.07;;;8.00;99.90;;;;;;5098146;28;20071;-66
2022/03/19 08:52:21;;;;;;;12.55;4.55;;;7.70;99.90;;;;;;5111758;28;20055;-66
2022/03/19 08:54:47;;;;;;;15.07;5.05;;;7.90;99.90;;;;;;5110283;28;20051;-66
2022/03/19 08:57:14;;;;;;;14.18;4.95;;;7.70;99.90;;;;;;5109009;28;20057;-66
2022/03/19 08:59:40;;;;;;;15.07;4.60;;;;;;;;;;5111059;28;20031;-66
2022/03/19 09:02:06;;;;;;;11.85;4.55;;;8.30;99.90;;;;;;5095360;28;20114;-66
2022/03/19 09:04:34;;;;;;;13.23;4.68;;;8.50;99.90;;;;;;5091851;28;20516;-66
2022/03/19 09:07:00;;;;;;;14.15;4.15;;;8.40;99.90;;;;;;5089139;28;20046;-66
2022/03/19 09:09:25;;;;;;;11.07;4.03;;;8.60;99.90;;;;;;5079185;28;20039;-66
2022/03/19 09:11:51;;;;;;;13.88;4.55;;;8.40;99.90;;;;;;5110575;28;20053;-66
2022/03/19 09:14:18;;;;;;;9.98;4.30;;;8.90;99.90;;;;;;5110317;28;20055;-66
2022/03/19 09:16:44;;;;;;;9.70;3.47;;;8.80;99.90;;;;;;5091288;28;20051;-66
2022/03/19 09:19:10;;;;;;;9.32;3.13;;;;;;;;;;5109193;28;20040;-66
2022/03/19 09:21:36;;;;;;;9.05;3.45;;;;;;;;;;5092509;28;20092;-66
2022/03/19 09:24:04;;;;;;;12.90;3.92;;;8.80;99.90;;;;;;5094828;28;20044;-66
2022/03/19 09:26:30;;;;;;;12.57;5.40;;;8.90;99.90;;;;;;5089566;28;20079;-66
2022/03/19 09:28:56;;;;;;;15.93;3.55;;;;;;;;;;5103043;28;20055;-67
2022/03/19 09:31:22;;;;;;;12.75;3.15;;;9.00;99.90;;;;;;5103295;28;20488;-66
2022/03/19 09:33:48;;;;;;;8.63;2.47;;;9.00;99.90;;;;;;5083707;28;20044;-66
2022/03/19 09:36:15;;;;;;;7.95;2.70;;;;;;;;;;5088905;28;20527;-66
2022/03/19 09:38:41;;;;;;;7.68;2.40;;;;;;;;;;5098688;28;20884;-66
2022/03/19 09:41:07;;;;;;;11.00;3.25;;;9.00;99.90;;;;;;5103290;28;20047;-66
2022/03/19 09:43:34;;;;;;;7.78;3.13;;;9.20;99.90;;;;;;5103077;28;20165;-66
2022/03/19 09:46:01;;;;;;;11.32;3.80;;;9.30;99.90;;;;;;5088920;28;20055;-66
2022/03/19 09:48:27;;;;;;;8.77;2.75;;;9.50;99.90;;;;;;5098108;28;20051;-66
2022/03/19 09:50:54;;;;;;;11.90;3.00;;;9.40;99.90;;;;;;5093170;28;20036;-66
2022/03/19 09:53:23;;;;;;;11.82;2.58;;;9.30;99.90;;;;;;5089249;28;20062;-66
2022/03/19 09:55:49;;;;;;;7.95;2.13;;;;;;;;;;5090436;28;20043;-63
2022/03/19 09:58:16;;;;;;;7.07;2.00;;;;;;;;;;5099658;28;20040;-68
2022/03/19 10:00:43;;;;;;;8.30;2.28;;;9.90;99.90;;;;;;5087698;28;20044;-68
2022/03/19 10:03:10;;;;;;;8.82;2.95;;;9.70;99.90;;;;;;5088721;28;20040;-68
2022/03/19 10:08:39;;;;;;;8.68;2.85;;;;;;;;;;5093149;28;20044;-68
2022/03/19 10:11:09;;;;;;;6.85;2.30;;;;;;;;;;5091678;28;20059;-64
2022/03/19 10:13:40;;;;;;;12.00;3.10;;;;;;;;;;5099293;28;20050;-68
2022/03/19 10:16:06;;;;;;;5.60;1.95;;;;;;;;;;5098945;28;20489;-68
2022/03/19 10:18:33;;;;;;;11.13;2.67;;;;;;;;;;5105085;28;20401;-68
2022/03/19 10:21:03;;;;;;;12.13;2.50;;;;;;;;;;5090224;28;20073;-68
2022/03/19 10:23:39;;;;;;;10.48;2.70;;;;;;;;;;5097312;28;20046;-67
2022/03/19 10:26:05;;;;;;;10.88;3.53;;;;;;;;;;5109650;28;20403;-68
2022/03/19 10:28:33;;;;;;;9.55;2.40;;;;;;;;;;5109321;28;20032;-67
2022/03/19 10:30:59;;;;;;;8.70;2.25;;;;;;;;;;5093621;28;20040;-67
2022/03/19 10:33:33;;;;;;;9.57;3.00;;;;;;;;;;5081526;28;20051;-67
2022/03/19 10:36:06;;;;;;;9.07;2.20;;;;;;;;;;5106306;28;20109;-68
2022/03/19 10:38:40;;;;;;;9.75;2.22;;;;;;;;;;5110964;28;20046;-67
2022/03/19 10:41:06;;;;;;;8.30;2.25;;;;;;;;;;5111197;28;20050;-68
2022/03/19 10:43:33;;;;;;;10.77;2.45;;;;;;;;;;5103490;28;20051;-68
2022/03/19 10:46:02;;;;;;;5.80;2.33;;;;;;;;;;5091621;28;20052;-68
2022/03/19 10:48:29;;;;;;;6.85;2.83;;;;;;;;;;5093987;28;20050;-68
2022/03/19 10:50:55;;;;;;;12.93;2.50;;;;;;;;;;5102371;28;20111;-68
2022/03/19 10:53:22;;;;;;;7.40;2.70;;;;;;;;;;5095780;28;20064;-68
2022/03/19 10:55:47;;;;;;;7.68;2.50;;;10.90;99.90;;;;;;5101715;28;20048;-69
2022/03/19 10:58:14;;;;;;;8.80;2.42;;;;;;;;;;5092059;28;20533;-68
2022/03/19 11:00:41;;;;;;;11.68;3.08;;;;;;;;;;5101920;28;20043;-68
2022/03/19 11:03:16;;;;;;;9.15;2.00;;;10.90;98.20;;;;;;5095244;28;20397;-68
2022/03/19 11:05:43;;;;;;;9.27;2.50;;;11.00;99.90;;;;;;5090587;28;20047;-68
2022/03/19 11:08:08;;;;;;;8.25;2.20;;;11.00;99.90;;;;;;5098021;28;20059;-68
2022/03/19 11:10:35;;;;;;;9.75;2.67;;;11.00;99.20;;;;;;5110777;28;20035;-68
2022/03/19 11:13:02;;;;;;;7.05;2.20;;;11.00;99.90;;;;;;5110769;28;20052;-68
2022/03/19 11:15:32;;;;;;;5.68;2.10;;;11.80;99.90;;;;;;5110672;28;20040;-68
2022/03/19 11:18:03;;;;;;;8.15;2.17;;;11.10;99.90;;;;;;5110012;28;20048;-67
2022/03/19 11:20:30;;;;;;;11.88;2.45;;;11.10;99.90;;;;;;5107777;28;20032;-67
2022/03/19 11:22:58;;;;;;;7.85;2.20;;;11.20;99.90;;;;;;5112605;28;20039;-68
2022/03/19 11:25:27;;;;;;;10.77;3.05;;;11.30;99.90;;;;;;5100162;28;20052;-68
2022/03/19 11:27:59;;;;;;;9.38;2.63;;;11.50;99.90;;;;;;5112541;28;20039;-68
2022/03/19 11:30:27;;;;;;;7.53;1.85;;;11.30;99.90;;;;;;5111690;28;20067;-68
2022/03/19 11:33:03;;;;;;;5.43;1.83;;;11.20;99.90;;;;;;5112355;28;20044;-67
2022/03/19 11:35:30;;;;;;;8.02;1.80;;;11.80;99.90;;;;;;5103770;28;20089;-67
2022/03/19 11:38:20;;;;;;;8.25;2.10;;;11.30;99.90;;;;;;5104708;28;20071;-67
2022/03/19 11:40:50;;;;;;;9.63;2.70;;;11.30;99.90;;;;;;5104818;28;20038;-67
2022/03/19 11:43:18;;;;;;;6.95;2.42;;;11.50;99.90;;;;;;5098206;28;20075;-67
2022/03/19 11:46:03;;;;;;;6.90;2.38;;;11.50;99.90;;;;;;5097992;28;20523;-67
2022/03/19 11:48:35;;;;;;;9.05;3.00;;;;;;;;;;5109718;28;20553;-67
2022/03/19 11:51:20;;;;;;;5.38;1.60;;;;;;;;;;5098258;28;20441;-67
2022/03/19 11:53:56;;;;;;;7.35;2.42;;;;;;;;;;5105468;28;20096;-68
2022/03/19 11:56:23;;;;;;;7.90;2.40;;;;;;;;;;5100413;28;20044;-67
2022/03/19 11:58:49;;;;;;;6.35;1.60;;;;;;;;;;5104030;28;20135;-67
2022/03/19 12:01:16;;;;;;;9.30;2.10;;;;;;;;;;5103234;28;20040;-68
2022/03/19 12:04:00;;;;;;;5.57;1.63;;;;;;;;;;5100935;28;20043;-67
2022/03/19 12:06:30;;;;;;;6.50;1.98;;;;;;;;;;5077120;28;20442;-67
2022/03/19 12:08:56;;;;;;;6.63;1.98;;;;;;;;;;5108071;28;20035;-67
2022/03/19 12:11:22;;;;;;;5.15;1.83;;;;;;;;;;5105780;28;20040;-67
2022/03/19 12:13:49;;;;;;;3.70;1.40;;;;;;;;;;5091448;28;20054;-68
2022/03/19 12:16:34;;;;;;;6.60;1.88;;;;;;;;;;5104874;28;20134;-68
2022/03/19 12:19:00;;;;;;;5.93;1.63;;;;;;;;;;5092462;28;20052;-67
2022/03/19 12:21:26;;;;;;;7.97;2.42;;;;;;;;;;5076431;28;20043;-67
2022/03/19 12:23:52;;;;;;;5.35;1.63;;;;;;;;;;5101098;28;20050;-67
2022/03/19 12:26:22;;;;;;;4.07;1.50;;;;;;;;;;5090844;28;20472;-67
2022/03/19 12:28:58;;;;;;;7.88;3.00;;;;;;;;;;5095546;28;20043;-67
2022/03/19 12:31:28;;;;;;;10.75;3.17;;;;;;;;;;5098379;28;20036;-68
2022/03/19 12:33:54;;;;;;;9.85;3.42;;;;;;;;;;5091080;28;20044;-67
2022/03/19 12:36:20;;;;;;;12.02;3.10;;;;;;;;;;5102826;28;20039;-67
2022/03/19 12:38:48;;;;;;;9.00;2.60;;;;;;;;;;5094967;28;20071;-67
2022/03/19 12:41:28;;;;;;;4.93;2.28;;;;;;;;;;5101127;28;20051;-67
2022/03/19 12:43:55;;;;;;;7.85;3.15;;;;;;;;;;5099911;28;20123;-67
2022/03/19 12:46:25;;;;;;;8.05;2.60;;;11.70;99.90;;;;;;5089940;28;20117;-67
2022/03/19 12:48:59;;;;;;;9.07;2.22;;;11.90;99.90;;;;;;5098659;28;20134;-68
2022/03/19 12:51:27;;;;;;;7.00;2.47;;;11.70;99.90;;;;;;5098541;28;20093;-68
2022/03/19 12:53:53;;;;;;;5.22;1.98;;;11.60;99.90;;;;;;5101035;28;20087;-67
2022/03/19 12:56:25;;;;;;;8.93;2.35;;;11.50;99.90;;;;;;5096118;28;20788;-66
2022/03/19 12:58:53;;;;;;;6.88;2.38;;;11.60;99.90;;;;;;5103982;28;20071;-71
2022/03/19 13:01:28;;;;;;;6.95;2.75;;;11.40;99.90;;;;;;5096351;28;20043;-68
2022/03/19 13:03:58;;;;;;;10.25;3.17;;;11.40;99.90;;;;;;5092116;28;20084;-68
2022/03/19 13:06:41;;;;;;;7.03;2.67;;;11.30;99.90;;;;;;5092362;28;20035;-67
2022/03/19 13:09:08;;;;;;;6.43;2.30;;;11.40;99.90;;;;;;5096587;28;20058;-68
2022/03/19 13:11:49;;;;;;;7.90;2.13;;;11.40;99.90;;;;;;5090036;28;20047;-67
2022/03/19 13:14:16;;;;;;;7.72;2.50;;;11.40;99.90;;;;;;5089309;28;20051;-67
2022/03/19 13:16:50;;;;;;;8.55;2.38;;;11.40;99.90;;;;;;5088387;28;20576;-68
2022/03/19 13:19:17;;;;;;;12.48;2.80;;;11.30;99.90;;;;;;5090651;28;20492;-67
2022/03/19 13:21:45;;;;;;;11.15;2.92;;;11.60;99.90;;;;;;5093941;28;20040;-67
2022/03/19 13:24:12;;;;;;;12.48;2.53;;;11.40;99.90;;;;;;5105553;28;20054;-67
2022/03/19 13:26:38;;;;;;;8.60;2.80;;;;;;;;;;5109610;28;20515;-68
2022/03/19 13:29:15;;;;;;;11.02;2.70;;;11.00;99.90;;;;;;5097011;28;20100;-68
2022/03/19 13:31:44;;;;;;;11.32;2.80;;;11.80;99.90;;;;;;5090394;28;20054;-68
2022/03/19 13:34:24;;;;;;;6.95;2.67;;;11.60;99.90;;;;;;5097905;28;20119;-68
2022/03/19 13:36:56;;;;;;;7.68;2.53;;;11.40;99.90;;;;;;5095370;28;20492;-68
2022/03/19 13:39:28;;;;;;;7.55;2.30;;;11.30;99.90;;;;;;5091091;28;20040;-68
2022/03/19 13:42:12;;;;;;;6.32;2.47;;;11.70;99.90;;;;;;5087307;28;20043;-68
2022/03/19 13:44:40;;;;;;;8.10;2.70;;;11.70;99.90;;;;;;5102263;28;20123;-68
2022/03/19 13:47:08;;;;;;;9.85;2.88;;;12.10;99.90;;;;;;5102909;28;20142;-68
2022/03/19 13:49:39;;;;;;;7.55;3.28;;;11.80;99.90;;;;;;5100294;28;20368;-68
2022/03/19 13:52:06;;;;;;;9.57;2.55;;;11.70;99.90;;;;;;5089205;28;20044;-68
2022/03/19 13:54:46;;;;;;;7.63;2.80;;;11.20;99.90;;;;;;5090095;28;20052;-68
2022/03/19 13:57:14;;;;;;;8.75;3.08;;;11.50;99.90;;;;;;5095089;28;20044;-68
2022/03/19 13:59:42;;;;;;;8.05;3.30;;;;;;;;;;5096696;28;20048;-68
2022/03/19 14:02:08;;;;;;;14.30;3.63;;;11.20;99.90;;;;;;5091300;28;20144;-69
2022/03/19 14:04:37;;;;;;;9.27;3.17;;;11.50;99.90;;;;;;5098791;28;20040;-67
2022/03/19 14:07:07;;;;;;;8.35;3.45;;;11.50;99.90;;;;;;5100327;28;20091;-67
2022/03/19 14:09:33;;;;;;;7.65;2.58;;;;;;;;;;5109827;28;20118;-67
2022/03/19 14:11:59;;;;;;;11.20;3.47;;;;;;;;;;5107374;28;20104;-67
2022/03/19 14:14:25;;;;;;;9.98;3.28;;;;;;;;;;5093645;28;20127;-67
2022/03/19 14:16:57;;;;;;;11.45;3.22;;;11.30;99.90;;;;;;5107501;28;20086;-67
2022/03/19 14:19:23;;;;;;;8.88;2.92;;;;;;;;;;5100457;28;20035;-67
2022/03/19 14:21:49;;;;;;;8.35;3.10;;;;;;;;;;5093219;28;20044;-67